sensor_id;sensor_type;location;lat;lon;timestamp;P1;durP1;ratioP1;P2;durP2;ratioP2
20232;SDS011;37438;55.674;13.074;2023-02-12T00:00:56;80.77;;;12.70;;
20232;SDS011;37438;55.674;13.074;2023-02-12T00:04:01;88.27;;;12.20;;
20232;SDS011;37438;55.674;13.074;2023-02-12T00:07:06;95.57;;;15.10;;
20232;SDS011;37438;55.674;13.074;2023-02-12T00:10:10;49.30;;;9.05;;
20232;SDS011;37438;55.674;13.074;2023-02-12T00:13:15;74.10;;;12.80;;
20232;SDS011;37438;55.674;13.074;2023-02-12T00:16:21;107.75;;;14.80;;
20232;SDS011;37438;55.674;13.074;2023-02-12T00:19:28;66.93;;;11.65;;
20232;SDS011;37438;55.674;13.074;2023-02-12T00:22:33;82.72;;;13.02;;
20232;SDS011;37438;55.674;13.074;2023-02-12T00:25:39;55.17;;;8.53;;
20232;SDS011;37438;55.674;13.074;2023-02-12T00:28:44;93.97;;;12.75;;
20232;SDS011;37438;55.674;13.074;2023-02-12T00:31:49;91.35;;;10.45;;
20232;SDS011;37438;55.674;13.074;2023-02-12T00:34:53;142.23;;;16.05;;
20232;SDS011;37438;55.674;13.074;2023-02-12T00:37:58;207.00;;;27.00;;
20232;SDS011;37438;55.674;13.074;2023-02-12T00:41:02;87.95;;;13.98;;
20232;SDS011;37438;55.674;13.074;2023-02-12T00:44:06;86.57;;;12.35;;
20232;SDS011;37438;55.674;13.074;2023-02-12T00:47:11;111.75;;;12.75;;
20232;SDS011;37438;55.674;13.074;2023-02-12T00:50:15;93.63;;;12.53;;
20232;SDS011;37438;55.674;13.074;2023-02-12T00:53:20;94.57;;;13.73;;
20232;SDS011;37438;55.674;13.074;2023-02-12T00:56:24;124.20;;;14.97;;
20232;SDS011;37438;55.674;13.074;2023-02-12T00:59:29;109.18;;;15.07;;
20232;SDS011;37438;55.674;13.074;2023-02-12T01:02:33;106.55;;;13.05;;
20232;SDS011;37438;55.674;13.074;2023-02-12T01:05:38;112.30;;;11.02;;
20232;SDS011;37438;55.674;13.074;2023-02-12T01:08:42;70.67;;;9.70;;
20232;SDS011;37438;55.674;13.074;2023-02-12T01:11:47;96.88;;;11.75;;
20232;SDS011;37438;55.674;13.074;2023-02-12T01:14:52;109.97;;;12.73;;
20232;SDS011;37438;55.674;13.074;2023-02-12T01:17:56;104.80;;;9.73;;
20232;SDS011;37438;55.674;13.074;2023-02-12T01:21:00;105.93;;;13.53;;
20232;SDS011;37438;55.674;13.074;2023-02-12T01:24:10;116.78;;;13.57;;
20232;SDS011;37438;55.674;13.074;2023-02-12T01:27:15;121.18;;;15.65;;
20232;SDS011;37438;55.674;13.074;2023-02-12T01:30:19;97.18;;;13.50;;
20232;SDS011;37438;55.674;13.074;2023-02-12T01:33:27;145.73;;;14.63;;
20232;SDS011;37438;55.674;13.074;2023-02-12T01:36:31;103.13;;;12.68;;
20232;SDS011;37438;55.674;13.074;2023-02-12T01:39:35;174.43;;;11.68;;
20232;SDS011;37438;55.674;13.074;2023-02-12T01:42:40;95.75;;;8.98;;
20232;SDS011;37438;55.674;13.074;2023-02-12T01:45:46;114.15;;;12.75;;
20232;SDS011;37438;55.674;13.074;2023-02-12T01:48:57;92.63;;;10.10;;
20232;SDS011;37438;55.674;13.074;2023-02-12T01:52:04;100.85;;;11.63;;
20232;SDS011;37438;55.674;13.074;2023-02-12T01:55:15;77.95;;;9.52;;
20232;SDS011;37438;55.674;13.074;2023-02-12T01:58:21;139.50;;;10.52;;
20232;SDS011;37438;55.674;13.074;2023-02-12T02:01:29;97.35;;;12.07;;
20232;SDS011;37438;55.674;13.074;2023-02-12T02:04:38;75.18;;;11.60;;
20232;SDS011;37438;55.674;13.074;2023-02-12T02:07:47;70.35;;;9.77;;
20232;SDS011;37438;55.674;13.074;2023-02-12T02:10:52;80.32;;;11.80;;
20232;SDS011;37438;55.674;13.074;2023-02-12T02:13:56;91.30;;;12.20;;
20232;SDS011;37438;55.674;13.074;2023-02-12T02:24:08;98.80;;;11.60;;
20232;SDS011;37438;55.674;13.074;2023-02-12T02:30:33;91.40;;;10.25;;
20232;SDS011;37438;55.674;13.074;2023-02-12T02:43:23;75.03;;;10.07;;
20232;SDS011;37438;55.674;13.074;2023-02-12T02:46:37;72.13;;;10.77;;
20232;SDS011;37438;55.674;13.074;2023-02-12T02:49:49;87.43;;;12.37;;
20232;SDS011;37438;55.674;13.074;2023-02-12T02:53:03;75.50;;;11.02;;
20232;SDS011;37438;55.674;13.074;2023-02-12T02:56:14;101.95;;;13.43;;
20232;SDS011;37438;55.674;13.074;2023-02-12T02:59:22;85.03;;;11.98;;
20232;SDS011;37438;55.674;13.074;2023-02-12T03:02:33;77.25;;;11.02;;
20232;SDS011;37438;55.674;13.074;2023-02-12T03:05:42;101.20;;;11.13;;
20232;SDS011;37438;55.674;13.074;2023-02-12T03:08:52;89.28;;;10.95;;
20232;SDS011;37438;55.674;13.074;2023-02-12T03:12:02;91.07;;;12.70;;
20232;SDS011;37438;55.674;13.074;2023-02-12T03:15:17;77.80;;;11.98;;
20232;SDS011;37438;55.674;13.074;2023-02-12T03:18:23;97.95;;;12.55;;
20232;SDS011;37438;55.674;13.074;2023-02-12T03:21:38;104.95;;;13.77;;
20232;SDS011;37438;55.674;13.074;2023-02-12T03:24:47;97.03;;;13.85;;
20232;SDS011;37438;55.674;13.074;2023-02-12T03:28:05;102.63;;;11.50;;
20232;SDS011;37438;55.674;13.074;2023-02-12T03:34:50;106.88;;;14.20;;
20232;SDS011;37438;55.674;13.074;2023-02-12T03:41:12;117.90;;;13.75;;
20232;SDS011;37438;55.674;13.074;2023-02-12T03:48:18;125.03;;;13.20;;
20232;SDS011;37438;55.674;13.074;2023-02-12T03:51:33;99.82;;;13.00;;
20232;SDS011;37438;55.674;13.074;2023-02-12T03:54:42;112.35;;;13.70;;
20232;SDS011;37438;55.674;13.074;2023-02-12T03:57:49;98.95;;;12.50;;
20232;SDS011;37438;55.674;13.074;2023-02-12T04:00:58;96.43;;;13.73;;
20232;SDS011;37438;55.674;13.074;2023-02-12T04:04:06;106.75;;;12.82;;
20232;SDS011;37438;55.674;13.074;2023-02-12T04:07:11;106.80;;;13.50;;
20232;SDS011;37438;55.674;13.074;2023-02-12T04:10:16;106.45;;;15.77;;
20232;SDS011;37438;55.674;13.074;2023-02-12T04:16:51;122.45;;;13.75;;
20232;SDS011;37438;55.674;13.074;2023-02-12T04:23:23;134.52;;;15.73;;
20232;SDS011;37438;55.674;13.074;2023-02-12T04:30:13;155.80;;;15.30;;
20232;SDS011;37438;55.674;13.074;2023-02-12T04:33:22;191.77;;;17.25;;
20232;SDS011;37438;55.674;13.074;2023-02-12T04:36:34;171.07;;;13.68;;
20232;SDS011;37438;55.674;13.074;2023-02-12T04:39:45;173.05;;;17.35;;
20232;SDS011;37438;55.674;13.074;2023-02-12T04:42:52;210.73;;;16.08;;
20232;SDS011;37438;55.674;13.074;2023-02-12T04:49:02;147.02;;;13.15;;
20232;SDS011;37438;55.674;13.074;2023-02-12T04:52:06;169.70;;;14.30;;
20232;SDS011;37438;55.674;13.074;2023-02-12T04:55:11;149.15;;;12.75;;
20232;SDS011;37438;55.674;13.074;2023-02-12T04:58:16;176.77;;;14.18;;
20232;SDS011;37438;55.674;13.074;2023-02-12T05:01:21;156.88;;;13.35;;
20232;SDS011;37438;55.674;13.074;2023-02-12T05:04:26;154.55;;;13.18;;
20232;SDS011;37438;55.674;13.074;2023-02-12T05:07:30;139.40;;;12.10;;
20232;SDS011;37438;55.674;13.074;2023-02-12T05:10:35;113.38;;;12.85;;
20232;SDS011;37438;55.674;13.074;2023-02-12T05:13:39;86.50;;;9.00;;
20232;SDS011;37438;55.674;13.074;2023-02-12T05:16:44;157.45;;;13.43;;
20232;SDS011;37438;55.674;13.074;2023-02-12T05:19:49;117.45;;;14.10;;
20232;SDS011;37438;55.674;13.074;2023-02-12T05:22:54;163.77;;;14.15;;
20232;SDS011;37438;55.674;13.074;2023-02-12T05:25:59;154.83;;;15.43;;
20232;SDS011;37438;55.674;13.074;2023-02-12T05:29:05;149.23;;;16.10;;
20232;SDS011;37438;55.674;13.074;2023-02-12T05:32:09;144.53;;;13.43;;
20232;SDS011;37438;55.674;13.074;2023-02-12T05:35:13;152.15;;;13.85;;
20232;SDS011;37438;55.674;13.074;2023-02-12T05:38:18;161.25;;;18.25;;
20232;SDS011;37438;55.674;13.074;2023-02-12T05:41:23;156.52;;;16.10;;
20232;SDS011;37438;55.674;13.074;2023-02-12T05:44:27;180.65;;;15.65;;
20232;SDS011;37438;55.674;13.074;2023-02-12T05:47:31;133.80;;;16.98;;
20232;SDS011;37438;55.674;13.074;2023-02-12T05:50:36;119.87;;;15.27;;
20232;SDS011;37438;55.674;13.074;2023-02-12T05:53:43;119.88;;;15.70;;
20232;SDS011;37438;55.674;13.074;2023-02-12T05:56:48;136.52;;;14.32;;
20232;SDS011;37438;55.674;13.074;2023-02-12T05:59:52;150.55;;;14.30;;
20232;SDS011;37438;55.674;13.074;2023-02-12T06:02:57;166.90;;;15.10;;
20232;SDS011;37438;55.674;13.074;2023-02-12T06:06:01;151.20;;;13.63;;
20232;SDS011;37438;55.674;13.074;2023-02-12T06:09:07;157.98;;;15.63;;
20232;SDS011;37438;55.674;13.074;2023-02-12T06:12:13;155.85;;;15.88;;
20232;SDS011;37438;55.674;13.074;2023-02-12T06:15:17;102.03;;;12.52;;
20232;SDS011;37438;55.674;13.074;2023-02-12T06:18:22;131.40;;;15.63;;
20232;SDS011;37438;55.674;13.074;2023-02-12T06:21:27;163.30;;;18.85;;
20232;SDS011;37438;55.674;13.074;2023-02-12T06:24:31;152.50;;;16.02;;
20232;SDS011;37438;55.674;13.074;2023-02-12T06:27:36;127.53;;;15.02;;
20232;SDS011;37438;55.674;13.074;2023-02-12T06:30:41;105.07;;;15.48;;
20232;SDS011;37438;55.674;13.074;2023-02-12T06:33:46;206.90;;;24.83;;
20232;SDS011;37438;55.674;13.074;2023-02-12T06:36:51;133.43;;;18.80;;
20232;SDS011;37438;55.674;13.074;2023-02-12T06:39:55;165.63;;;20.00;;
20232;SDS011;37438;55.674;13.074;2023-02-12T06:42:59;118.88;;;16.45;;
20232;SDS011;37438;55.674;13.074;2023-02-12T06:46:04;92.15;;;15.27;;
20232;SDS011;37438;55.674;13.074;2023-02-12T06:49:09;80.85;;;16.02;;
20232;SDS011;37438;55.674;13.074;2023-02-12T06:52:15;62.33;;;13.55;;
20232;SDS011;37438;55.674;13.074;2023-02-12T06:55:20;52.50;;;10.83;;
20232;SDS011;37438;55.674;13.074;2023-02-12T06:58:24;75.77;;;16.10;;
20232;SDS011;37438;55.674;13.074;2023-02-12T07:01:28;72.33;;;13.10;;
20232;SDS011;37438;55.674;13.074;2023-02-12T07:04:33;47.53;;;12.13;;
20232;SDS011;37438;55.674;13.074;2023-02-12T07:07:37;72.82;;;15.80;;
20232;SDS011;37438;55.674;13.074;2023-02-12T07:10:42;58.60;;;14.80;;
20232;SDS011;37438;55.674;13.074;2023-02-12T07:13:51;65.03;;;16.02;;
20232;SDS011;37438;55.674;13.074;2023-02-12T07:16:59;54.67;;;12.17;;
20232;SDS011;37438;55.674;13.074;2023-02-12T07:20:06;77.85;;;16.05;;
20232;SDS011;37438;55.674;13.074;2023-02-12T07:23:11;65.38;;;15.27;;
20232;SDS011;37438;55.674;13.074;2023-02-12T07:26:16;73.50;;;16.90;;
20232;SDS011;37438;55.674;13.074;2023-02-12T07:29:22;80.90;;;16.08;;
20232;SDS011;37438;55.674;13.074;2023-02-12T07:32:26;77.03;;;16.10;;
20232;SDS011;37438;55.674;13.074;2023-02-12T07:35:31;76.53;;;17.08;;
20232;SDS011;37438;55.674;13.074;2023-02-12T07:38:35;65.93;;;15.50;;
20232;SDS011;37438;55.674;13.074;2023-02-12T07:41:42;66.13;;;16.35;;
20232;SDS011;37438;55.674;13.074;2023-02-12T07:44:47;51.13;;;13.23;;
20232;SDS011;37438;55.674;13.074;2023-02-12T07:47:51;50.33;;;12.38;;
20232;SDS011;37438;55.674;13.074;2023-02-12T07:50:55;34.90;;;10.73;;
20232;SDS011;37438;55.674;13.074;2023-02-12T07:54:00;38.57;;;11.73;;
20232;SDS011;37438;55.674;13.074;2023-02-12T07:57:05;35.70;;;10.23;;
20232;SDS011;37438;55.674;13.074;2023-02-12T08:00:10;32.83;;;9.50;;
20232;SDS011;37438;55.674;13.074;2023-02-12T08:03:15;32.53;;;9.40;;
20232;SDS011;37438;55.674;13.074;2023-02-12T08:06:20;38.37;;;9.77;;
20232;SDS011;37438;55.674;13.074;2023-02-12T08:09:28;33.03;;;8.40;;
20232;SDS011;37438;55.674;13.074;2023-02-12T08:12:34;28.67;;;7.80;;
20232;SDS011;37438;55.674;13.074;2023-02-12T08:15:38;15.75;;;5.80;;
20232;SDS011;37438;55.674;13.074;2023-02-12T08:18:42;20.40;;;6.38;;
20232;SDS011;37438;55.674;13.074;2023-02-12T08:21:51;19.50;;;7.10;;
20232;SDS011;37438;55.674;13.074;2023-02-12T08:24:56;20.75;;;6.43;;
20232;SDS011;37438;55.674;13.074;2023-02-12T08:28:00;16.05;;;5.60;;
20232;SDS011;37438;55.674;13.074;2023-02-12T08:31:06;23.65;;;6.82;;
20232;SDS011;37438;55.674;13.074;2023-02-12T08:34:20;22.85;;;6.97;;
20232;SDS011;37438;55.674;13.074;2023-02-12T08:37:29;24.95;;;7.38;;
20232;SDS011;37438;55.674;13.074;2023-02-12T08:40:34;22.48;;;7.10;;
20232;SDS011;37438;55.674;13.074;2023-02-12T08:43:39;23.35;;;6.47;;
20232;SDS011;37438;55.674;13.074;2023-02-12T08:46:45;23.48;;;7.30;;
20232;SDS011;37438;55.674;13.074;2023-02-12T08:49:51;26.50;;;8.95;;
20232;SDS011;37438;55.674;13.074;2023-02-12T08:52:55;21.40;;;7.83;;
20232;SDS011;37438;55.674;13.074;2023-02-12T08:56:00;18.30;;;6.45;;
20232;SDS011;37438;55.674;13.074;2023-02-12T08:59:05;25.58;;;7.25;;
20232;SDS011;37438;55.674;13.074;2023-02-12T09:02:10;22.45;;;6.90;;
20232;SDS011;37438;55.674;13.074;2023-02-12T09:05:15;22.02;;;6.53;;
20232;SDS011;37438;55.674;13.074;2023-02-12T09:08:19;31.73;;;7.38;;
20232;SDS011;37438;55.674;13.074;2023-02-12T09:11:24;20.80;;;6.90;;
20232;SDS011;37438;55.674;13.074;2023-02-12T09:14:33;20.63;;;5.28;;
20232;SDS011;37438;55.674;13.074;2023-02-12T09:17:38;17.27;;;5.05;;
20232;SDS011;37438;55.674;13.074;2023-02-12T09:20:44;28.33;;;6.03;;
20232;SDS011;37438;55.674;13.074;2023-02-12T09:23:49;16.20;;;5.30;;
20232;SDS011;37438;55.674;13.074;2023-02-12T09:26:54;10.65;;;3.88;;
20232;SDS011;37438;55.674;13.074;2023-02-12T09:29:59;17.40;;;4.38;;
20232;SDS011;37438;55.674;13.074;2023-02-12T09:33:04;17.50;;;4.18;;
20232;SDS011;37438;55.674;13.074;2023-02-12T09:36:10;18.80;;;3.80;;
20232;SDS011;37438;55.674;13.074;2023-02-12T09:39:16;14.52;;;4.50;;
20232;SDS011;37438;55.674;13.074;2023-02-12T09:45:52;13.82;;;3.70;;
20232;SDS011;37438;55.674;13.074;2023-02-12T09:52:14;11.20;;;2.42;;
20232;SDS011;37438;55.674;13.074;2023-02-12T09:55:21;14.00;;;3.05;;
20232;SDS011;37438;55.674;13.074;2023-02-12T10:01:56;13.88;;;2.63;;
20232;SDS011;37438;55.674;13.074;2023-02-12T10:05:01;14.13;;;2.47;;
20232;SDS011;37438;55.674;13.074;2023-02-12T10:11:39;16.35;;;3.03;;
20232;SDS011;37438;55.674;13.074;2023-02-12T10:15:03;8.80;;;1.50;;
20232;SDS011;37438;55.674;13.074;2023-02-12T10:28:01;10.95;;;1.65;;
20232;SDS011;37438;55.674;13.074;2023-02-12T10:31:32;12.48;;;2.47;;
20232;SDS011;37438;55.674;13.074;2023-02-12T10:34:40;19.23;;;2.78;;
20232;SDS011;37438;55.674;13.074;2023-02-12T10:38:05;9.32;;;1.23;;
20232;SDS011;37438;55.674;13.074;2023-02-12T10:41:17;13.73;;;2.20;;
20232;SDS011;37438;55.674;13.074;2023-02-12T10:44:22;11.75;;;1.65;;
20232;SDS011;37438;55.674;13.074;2023-02-12T10:47:26;15.43;;;1.83;;
20232;SDS011;37438;55.674;13.074;2023-02-12T10:50:40;10.73;;;1.73;;
20232;SDS011;37438;55.674;13.074;2023-02-12T10:53:54;11.82;;;1.73;;
20232;SDS011;37438;55.674;13.074;2023-02-12T10:56:59;13.90;;;2.40;;
20232;SDS011;37438;55.674;13.074;2023-02-12T11:03:34;13.73;;;2.67;;
20232;SDS011;37438;55.674;13.074;2023-02-12T11:06:40;17.63;;;2.83;;
20232;SDS011;37438;55.674;13.074;2023-02-12T11:10:00;10.90;;;1.50;;
20232;SDS011;37438;55.674;13.074;2023-02-12T11:13:04;10.13;;;1.37;;
20232;SDS011;37438;55.674;13.074;2023-02-12T11:16:09;12.52;;;2.33;;
20232;SDS011;37438;55.674;13.074;2023-02-12T11:19:33;14.75;;;1.67;;
20232;SDS011;37438;55.674;13.074;2023-02-12T11:22:39;9.73;;;1.95;;
20232;SDS011;37438;55.674;13.074;2023-02-12T11:29:21;11.80;;;1.52;;
20232;SDS011;37438;55.674;13.074;2023-02-12T11:32:27;11.98;;;2.28;;
20232;SDS011;37438;55.674;13.074;2023-02-12T11:35:32;14.60;;;2.00;;
20232;SDS011;37438;55.674;13.074;2023-02-12T11:38:39;8.77;;;1.45;;
20232;SDS011;37438;55.674;13.074;2023-02-12T11:42:02;11.98;;;1.60;;
20232;SDS011;37438;55.674;13.074;2023-02-12T11:45:14;13.13;;;1.52;;
20232;SDS011;37438;55.674;13.074;2023-02-12T11:48:25;14.68;;;2.63;;
20232;SDS011;37438;55.674;13.074;2023-02-12T11:51:38;10.60;;;2.97;;
20232;SDS011;37438;55.674;13.074;2023-02-12T11:54:42;9.37;;;2.63;;
20232;SDS011;37438;55.674;13.074;2023-02-12T11:57:51;8.25;;;2.40;;
20232;SDS011;37438;55.674;13.074;2023-02-12T12:04:37;14.88;;;2.83;;
20232;SDS011;37438;55.674;13.074;2023-02-12T12:07:55;10.23;;;2.60;;
20232;SDS011;37438;55.674;13.074;2023-02-12T12:18:11;10.50;;;3.35;;
20232;SDS011;37438;55.674;13.074;2023-02-12T12:22:02;10.85;;;3.75;;
20232;SDS011;37438;55.674;13.074;2023-02-12T12:25:15;13.13;;;4.28;;
20232;SDS011;37438;55.674;13.074;2023-02-12T12:31:48;20.30;;;4.38;;
20232;SDS011;37438;55.674;13.074;2023-02-12T12:34:57;13.77;;;3.63;;
20232;SDS011;37438;55.674;13.074;2023-02-12T12:38:05;23.23;;;5.72;;
20232;SDS011;37438;55.674;13.074;2023-02-12T13:19:20;8.73;;;1.88;;
20232;SDS011;37438;55.674;13.074;2023-02-12T13:25:47;3.95;;;1.15;;
20232;SDS011;37438;55.674;13.074;2023-02-12T13:29:15;7.95;;;0.88;;
20232;SDS011;37438;55.674;13.074;2023-02-12T13:33:01;6.15;;;1.35;;
20232;SDS011;37438;55.674;13.074;2023-02-12T13:36:11;1.75;;;0.63;;
20232;SDS011;37438;55.674;13.074;2023-02-12T13:39:34;4.97;;;0.90;;
20232;SDS011;37438;55.674;13.074;2023-02-12T13:50:14;4.53;;;0.63;;
20232;SDS011;37438;55.674;13.074;2023-02-12T13:59:50;4.75;;;0.65;;
20232;SDS011;37438;55.674;13.074;2023-02-12T14:03:06;4.65;;;0.45;;
20232;SDS011;37438;55.674;13.074;2023-02-12T14:06:15;4.38;;;0.68;;
20232;SDS011;37438;55.674;13.074;2023-02-12T14:09:29;7.28;;;0.80;;
20232;SDS011;37438;55.674;13.074;2023-02-12T14:12:38;3.40;;;0.50;;
20232;SDS011;37438;55.674;13.074;2023-02-12T14:15:53;3.22;;;0.60;;
20232;SDS011;37438;55.674;13.074;2023-02-12T14:25:47;4.32;;;0.52;;
20232;SDS011;37438;55.674;13.074;2023-02-12T14:29:05;3.90;;;0.50;;
20232;SDS011;37438;55.674;13.074;2023-02-12T14:36:16;8.65;;;0.75;;
20232;SDS011;37438;55.674;13.074;2023-02-12T14:39:36;0.98;;;0.22;;
20232;SDS011;37438;55.674;13.074;2023-02-12T14:42:41;4.30;;;0.90;;
20232;SDS011;37438;55.674;13.074;2023-02-12T14:45:46;3.38;;;0.75;;
20232;SDS011;37438;55.674;13.074;2023-02-12T14:48:52;4.18;;;0.47;;
20232;SDS011;37438;55.674;13.074;2023-02-12T14:55:25;2.92;;;0.30;;
20232;SDS011;37438;55.674;13.074;2023-02-12T14:58:36;4.10;;;0.88;;
20232;SDS011;37438;55.674;13.074;2023-02-12T15:01:41;3.97;;;0.30;;
20232;SDS011;37438;55.674;13.074;2023-02-12T15:04:46;7.50;;;0.68;;
20232;SDS011;37438;55.674;13.074;2023-02-12T15:11:20;7.80;;;0.80;;
20232;SDS011;37438;55.674;13.074;2023-02-12T15:14:27;2.33;;;0.40;;
20232;SDS011;37438;55.674;13.074;2023-02-12T15:17:36;8.38;;;0.52;;
20232;SDS011;37438;55.674;13.074;2023-02-12T15:20:45;5.15;;;0.45;;
20232;SDS011;37438;55.674;13.074;2023-02-12T15:24:09;5.55;;;1.15;;
20232;SDS011;37438;55.674;13.074;2023-02-12T15:27:15;2.95;;;0.30;;
20232;SDS011;37438;55.674;13.074;2023-02-12T15:30:22;2.88;;;0.60;;
20232;SDS011;37438;55.674;13.074;2023-02-12T15:33:33;6.18;;;1.13;;
20232;SDS011;37438;55.674;13.074;2023-02-12T15:36:43;4.10;;;0.60;;
20232;SDS011;37438;55.674;13.074;2023-02-12T15:39:48;9.15;;;0.65;;
20232;SDS011;37438;55.674;13.074;2023-02-12T15:43:02;6.38;;;0.60;;
20232;SDS011;37438;55.674;13.074;2023-02-12T15:46:14;4.05;;;0.50;;
20232;SDS011;37438;55.674;13.074;2023-02-12T15:49:24;3.72;;;1.02;;
20232;SDS011;37438;55.674;13.074;2023-02-12T15:52:34;8.15;;;1.48;;
20232;SDS011;37438;55.674;13.074;2023-02-12T15:55:46;7.65;;;0.98;;
20232;SDS011;37438;55.674;13.074;2023-02-12T15:58:52;5.13;;;0.98;;
20232;SDS011;37438;55.674;13.074;2023-02-12T16:02:00;5.60;;;0.88;;
20232;SDS011;37438;55.674;13.074;2023-02-12T16:05:09;3.22;;;0.70;;
20232;SDS011;37438;55.674;13.074;2023-02-12T16:08:19;6.10;;;0.98;;
20232;SDS011;37438;55.674;13.074;2023-02-12T16:11:25;5.53;;;2.25;;
20232;SDS011;37438;55.674;13.074;2023-02-12T16:14:39;9.23;;;1.40;;
20232;SDS011;37438;55.674;13.074;2023-02-12T16:17:56;4.82;;;0.50;;
20232;SDS011;37438;55.674;13.074;2023-02-12T16:21:04;3.92;;;1.05;;
20232;SDS011;37438;55.674;13.074;2023-02-12T16:24:19;3.63;;;0.55;;
20232;SDS011;37438;55.674;13.074;2023-02-12T16:27:29;10.32;;;1.88;;
20232;SDS011;37438;55.674;13.074;2023-02-12T16:30:37;7.18;;;1.10;;
20232;SDS011;37438;55.674;13.074;2023-02-12T16:33:46;4.03;;;1.05;;
20232;SDS011;37438;55.674;13.074;2023-02-12T16:36:52;3.20;;;0.60;;
20232;SDS011;37438;55.674;13.074;2023-02-12T16:43:04;8.35;;;1.35;;
20232;SDS011;37438;55.674;13.074;2023-02-12T16:46:26;7.90;;;0.85;;
20232;SDS011;37438;55.674;13.074;2023-02-12T16:49:33;8.68;;;1.98;;
20232;SDS011;37438;55.674;13.074;2023-02-12T16:52:38;7.85;;;1.63;;
20232;SDS011;37438;55.674;13.074;2023-02-12T16:55:43;6.63;;;0.95;;
20232;SDS011;37438;55.674;13.074;2023-02-12T16:58:48;6.23;;;1.03;;
20232;SDS011;37438;55.674;13.074;2023-02-12T17:01:56;11.57;;;1.52;;
20232;SDS011;37438;55.674;13.074;2023-02-12T17:05:06;4.05;;;1.15;;
20232;SDS011;37438;55.674;13.074;2023-02-12T17:08:12;6.97;;;1.60;;
20232;SDS011;37438;55.674;13.074;2023-02-12T17:11:22;5.75;;;2.00;;
20232;SDS011;37438;55.674;13.074;2023-02-12T17:14:27;3.95;;;0.88;;
20232;SDS011;37438;55.674;13.074;2023-02-12T17:17:32;3.28;;;0.73;;
20232;SDS011;37438;55.674;13.074;2023-02-12T17:20:36;7.13;;;1.10;;
20232;SDS011;37438;55.674;13.074;2023-02-12T17:23:41;6.10;;;1.08;;
20232;SDS011;37438;55.674;13.074;2023-02-12T17:26:46;9.45;;;1.27;;
20232;SDS011;37438;55.674;13.074;2023-02-12T17:29:53;7.47;;;1.10;;
20232;SDS011;37438;55.674;13.074;2023-02-12T17:32:57;8.05;;;1.08;;
20232;SDS011;37438;55.674;13.074;2023-02-12T17:36:02;13.35;;;1.33;;
20232;SDS011;37438;55.674;13.074;2023-02-12T17:39:08;7.95;;;1.52;;
20232;SDS011;37438;55.674;13.074;2023-02-12T17:42:14;11.00;;;1.55;;
20232;SDS011;37438;55.674;13.074;2023-02-12T17:45:19;8.40;;;0.85;;
20232;SDS011;37438;55.674;13.074;2023-02-12T17:48:23;7.10;;;1.42;;
20232;SDS011;37438;55.674;13.074;2023-02-12T17:51:27;9.10;;;0.95;;
20232;SDS011;37438;55.674;13.074;2023-02-12T17:54:32;3.85;;;1.20;;
20232;SDS011;37438;55.674;13.074;2023-02-12T17:57:36;14.50;;;1.63;;
20232;SDS011;37438;55.674;13.074;2023-02-12T18:00:41;2.58;;;0.75;;
20232;SDS011;37438;55.674;13.074;2023-02-12T18:03:45;3.50;;;1.23;;
20232;SDS011;37438;55.674;13.074;2023-02-12T18:06:49;9.77;;;2.13;;
20232;SDS011;37438;55.674;13.074;2023-02-12T18:09:54;5.10;;;1.50;;
20232;SDS011;37438;55.674;13.074;2023-02-12T18:12:58;7.93;;;1.05;;
20232;SDS011;37438;55.674;13.074;2023-02-12T18:16:06;10.90;;;1.67;;
20232;SDS011;37438;55.674;13.074;2023-02-12T18:19:12;8.32;;;1.90;;
20232;SDS011;37438;55.674;13.074;2023-02-12T18:22:18;15.30;;;2.47;;
20232;SDS011;37438;55.674;13.074;2023-02-12T18:25:22;13.68;;;2.50;;
20232;SDS011;37438;55.674;13.074;2023-02-12T18:28:26;7.07;;;1.42;;
20232;SDS011;37438;55.674;13.074;2023-02-12T18:31:31;9.23;;;2.55;;
20232;SDS011;37438;55.674;13.074;2023-02-12T18:34:36;6.85;;;1.50;;
20232;SDS011;37438;55.674;13.074;2023-02-12T18:40:46;7.57;;;1.45;;
20232;SDS011;37438;55.674;13.074;2023-02-12T18:43:51;3.75;;;0.80;;
20232;SDS011;37438;55.674;13.074;2023-02-12T18:46:56;10.00;;;1.67;;
20232;SDS011;37438;55.674;13.074;2023-02-12T18:50:03;5.55;;;1.13;;
20232;SDS011;37438;55.674;13.074;2023-02-12T18:53:07;6.57;;;1.15;;
20232;SDS011;37438;55.674;13.074;2023-02-12T18:56:12;8.35;;;2.22;;
20232;SDS011;37438;55.674;13.074;2023-02-12T18:59:18;6.28;;;0.95;;
20232;SDS011;37438;55.674;13.074;2023-02-12T19:02:24;5.18;;;1.08;;
20232;SDS011;37438;55.674;13.074;2023-02-12T19:05:29;5.28;;;0.90;;
20232;SDS011;37438;55.674;13.074;2023-02-12T19:08:34;4.20;;;1.75;;
20232;SDS011;37438;55.674;13.074;2023-02-12T19:11:38;4.68;;;0.77;;
20232;SDS011;37438;55.674;13.074;2023-02-12T19:14:42;11.02;;;1.85;;
20232;SDS011;37438;55.674;13.074;2023-02-12T19:17:47;4.93;;;0.90;;
20232;SDS011;37438;55.674;13.074;2023-02-12T19:20:52;12.23;;;2.22;;
20232;SDS011;37438;55.674;13.074;2023-02-12T19:23:57;4.17;;;0.70;;
20232;SDS011;37438;55.674;13.074;2023-02-12T19:27:02;3.50;;;1.08;;
20232;SDS011;37438;55.674;13.074;2023-02-12T19:30:07;4.43;;;1.13;;
20232;SDS011;37438;55.674;13.074;2023-02-12T19:33:12;4.05;;;1.23;;
20232;SDS011;37438;55.674;13.074;2023-02-12T19:36:17;5.38;;;0.98;;
20232;SDS011;37438;55.674;13.074;2023-02-12T19:39:22;6.43;;;1.55;;
20232;SDS011;37438;55.674;13.074;2023-02-12T19:42:27;6.85;;;1.80;;
20232;SDS011;37438;55.674;13.074;2023-02-12T19:45:32;5.75;;;1.45;;
20232;SDS011;37438;55.674;13.074;2023-02-12T19:48:36;5.47;;;1.63;;
20232;SDS011;37438;55.674;13.074;2023-02-12T19:51:41;2.75;;;1.30;;
20232;SDS011;37438;55.674;13.074;2023-02-12T19:54:46;7.07;;;1.10;;
20232;SDS011;37438;55.674;13.074;2023-02-12T19:57:50;4.55;;;1.20;;
20232;SDS011;37438;55.674;13.074;2023-02-12T20:00:54;5.43;;;0.97;;
20232;SDS011;37438;55.674;13.074;2023-02-12T20:03:59;3.40;;;1.67;;
20232;SDS011;37438;55.674;13.074;2023-02-12T20:07:05;5.75;;;0.90;;
20232;SDS011;37438;55.674;13.074;2023-02-12T20:10:11;6.93;;;1.30;;
20232;SDS011;37438;55.674;13.074;2023-02-12T20:13:15;12.23;;;2.15;;
20232;SDS011;37438;55.674;13.074;2023-02-12T20:16:23;5.72;;;1.20;;
20232;SDS011;37438;55.674;13.074;2023-02-12T20:19:30;3.90;;;1.20;;
20232;SDS011;37438;55.674;13.074;2023-02-12T20:22:35;4.80;;;0.60;;
20232;SDS011;37438;55.674;13.074;2023-02-12T20:25:44;3.83;;;1.70;;
20232;SDS011;37438;55.674;13.074;2023-02-12T20:28:49;2.58;;;1.00;;
20232;SDS011;37438;55.674;13.074;2023-02-12T20:31:54;5.53;;;1.20;;
20232;SDS011;37438;55.674;13.074;2023-02-12T20:34:59;5.28;;;0.90;;
20232;SDS011;37438;55.674;13.074;2023-02-12T20:38:04;1.83;;;0.70;;
20232;SDS011;37438;55.674;13.074;2023-02-12T20:41:10;2.63;;;1.05;;
20232;SDS011;37438;55.674;13.074;2023-02-12T20:44:17;3.05;;;1.50;;
20232;SDS011;37438;55.674;13.074;2023-02-12T20:47:23;6.63;;;1.80;;
20232;SDS011;37438;55.674;13.074;2023-02-12T20:50:32;4.95;;;1.20;;
20232;SDS011;37438;55.674;13.074;2023-02-12T20:53:36;11.68;;;2.33;;
20232;SDS011;37438;55.674;13.074;2023-02-12T20:56:41;3.78;;;1.20;;
20232;SDS011;37438;55.674;13.074;2023-02-12T20:59:46;2.95;;;1.13;;